Airfield :
LOGIN :

Register | Disclaimer

   EN    FR    IT 

 










Legend :    VFR   Marginal VFR   IFR   Intensive IFR   Very Intensive IFR
Visi :
Ceiling :
>= 8 km
>= 3000ft
5 to 8 km
1000 to 3000 ft
1500m to 5 km
500 to 1000 ft
800 to 1500m
200 to 500 ft
< 800m
< 200 ft
Symbols :   Thunderstorms  Fog  Heavy snow  Heavy precipitations  Wind > 20 kt
SIGMETs :     Misc.  Thunderstorms  Icing  Turbulence  Mountain Waves  Volcanic Ashes







- Airport Elevation : 856 ft
- IATA code : VGO


LEVX - Vigo Peinador

CURRENT METAR :
  • 250200Z VRB01KT 0300 R19/0275N R01/0250N FG VV001 17/17 Q1015 NOSIG

EXPIRED METARs :
  • 250130Z 34001KT 0300 R19/0375D R01/0325N FG VV001 17/17 Q1016 NOSIG
  • 250100Z VRB02KT 0300 R19/1500U R01/0375N FG VV001 17/17 Q1016 NOSIG
  • 250030Z 01003KT 330V110 0300 R19/0550U R01/0350U FG VV001 17/17 Q1016 NOSIG
  • 250000Z 03003KT 340V080 0300 R19/0175N R01/0200N FG VV001 17/17 Q1016 NOSIG
  • 242330Z 03003KT 350V070 0300 R19/0150N R01/0200D FG VV001 17/17 Q1016 NOSIG

TAF TAF LEVX
Valid from the 25 at 00:00 until the 26 at 00:00 UTC


242300Z 2500/2524 VRB04KT 1500 BR BKN006 TX23/2514Z TN17/2505Z
TEMPO 2500/2510 0600 BCFG BKN002
PROB40
TEMPO 2500/2508 0150 FG VV001
PROB30
TEMPO 2500/2506 TS SCT040CB
BECMG 2510/2512 8000 NSW
PROB40
TEMPO 2512/2518 29010KT SCT040TCU
TEMPO 2518/2524 BKN010
No reported NOTAMs for that airfield.



MET'MAP, your aeronautical weather chart ! - Copyright ORBIFLY December 2007 - Disclaimer

ORBIFLY MET'MAP TEAM :

Programming & Development : Alexandra Zaïnal
Concept & Development : Baudouin d'Aumeries
Co-Development & Prog : Marc-Olivier Méhu
Technical & hardware support : Manuel Goepfert

Contact : metmap@orbifly.com




SOURCES & CREDITS :

   NOAA